Aviation Digital Data Service (ADDS)

Output produced by METARs form (1604 UTC 17 November 2019)
found at http://aviationweather.gov/metar/data/
 
METAR text: ETMN 171520Z 06005KT 9000 BKN110 BKN240 04/03 Q1012 BLU
Conditions at: ETMN (NORDHOLZ (GER-NA, DE) observed 1520 UTC 17 November 2019
Temperature: 4.0°C (39°F)
Dewpoint: 3.0°C (37°F) [RH = 93%]
Pressure (altimeter): 29.88 inches Hg (1012.0 mb)
Winds: from the ENE (60 degrees) at 6 MPH (5 knots; 2.6 m/s)
Visibility: 6 miles ( 9 km)
Ceiling: 11000 feet AGL
Clouds: broken clouds at 11000 feet AGL
broken clouds at 24000 feet AGL
Weather: no significant weather observed at this time